Huvudsida
METAR-TAF:

METAR-TAF

Flygplatser :

Grosseto, Italien

latitud: 42-45N, longitud: 011-04E, höjd: 5 m

Aktuellt väderrapport

Denna rapport gjordes för 26 minuter sedan, klockan 13:55 UTC
Vind 10 kt från nord/nordost, varierande mellan nord/nordväst och ost
Temperatur 36°C
Fuktighet 37%
Tryck 1018 hPa
Sikt 10 km eller mer
Inga moln under 1 500 m eller inga cumulonimbus

METAR: LIRS 251355Z 03010KT 330V080 CAVOK 36/19 Q1018 RMK SKC VIS MIN 9999 WIND THR03 03010KT 350V090 WIND THR21 36011KT BLU

Tid: 16:21 (14:21 UTC)

Väderprognos

Denna rapport gjordes för 3 timmar och 21 minuter sedan, klockan 11:00 UTC
Prognos gäller från 25 kl. 12 UTC till 25 kl. 21 UTC
Vind 12 kt från nord/nordost
Sikt 10 km eller mer
Inga moln under 1 500 m eller inga cumulonimbus
Temporärt
från 25 kl. 13 UTC till 25 kl. 16 UTC
Vind 10 kt från sydväst

TAF: LIRS 251100Z 2512/2521 03012KT CAVOK TEMPO 2513/2516 23010KT

Aktuella väderrapporter och prognoser från 4000 flygplatser (METAR- och TAF-rapporter).

De tillgängliga stationerna syns som gula och röda prickar på kartan.

För musen över prickarna för att se namnen på stationerna.

Klicka sedan för att få väderrapporter och prognoser.

För att ändra kartan: Klicka på de gröna knapparna med ett svart kors på för att zooma in; den gröna knappen med ett streck på för att zooma ut; eller på de gröna pilarna för angränsande kartor.


METAR-TAF: